Time;durP1;ratioP1;P1;durP2;ratioP2;P2;SDS_P1;SDS_P2;PMS_P1;PMS_P2;Temp;Humidity;BMP_temperature;BMP_pressure;BME280_temperature;BME280_humidity;BME280_pressure;Samples;Min_cycle;Max_cycle;Signal;HPM_P1;HPM_P2
2022/04/05 00:01:47;;;;;;;;;14.75;14.25;;;;;10.15;56.46;100623.34;5034843;28;45637;-65
2022/04/05 00:04:12;;;;;;;;;14.75;14.25;;;;;10.16;56.43;100616.31;5027636;28;46929;-65
2022/04/05 00:06:38;;;;;;;;;13.25;12.50;;;;;10.16;56.37;100619.78;5034502;28;45570;-64
2022/04/05 00:09:03;;;;;;;;;13.25;12.25;;;;;10.18;57.26;100625.88;5035208;28;45839;-66
2022/04/05 00:11:29;;;;;;;;;13.00;13.00;;;;;10.16;57.19;100618.94;5035039;28;45521;-65
2022/04/05 00:13:54;;;;;;;;;14.50;13.25;;;;;10.11;57.36;100624.34;5034849;28;45945;-65
2022/04/05 00:16:19;;;;;;;;;9.25;9.25;;;;;10.12;57.63;100618.16;5036356;28;45435;-65
2022/04/05 00:18:45;;;;;;;;;15.50;11.50;;;;;10.09;58.02;100622.66;5037672;28;45457;-65
2022/04/05 00:21:10;;;;;;;;;11.75;11.75;;;;;10.09;57.96;100615.63;5038772;28;45352;-64
2022/04/05 00:23:35;;;;;;;;;13.00;11.00;;;;;10.09;58.16;100615.63;5038453;28;45491;-65
2022/04/05 00:26:01;;;;;;;;;13.25;11.50;;;;;10.10;58.25;100616.50;5038425;28;45415;-65
2022/04/05 00:28:27;;;;;;;;;13.75;13.75;;;;;10.11;57.51;100615.59;5038526;28;45408;-65
2022/04/05 00:30:52;;;;;;;;;10.00;10.00;;;;;10.07;58.87;100619.22;5038546;28;45586;-64
2022/04/05 00:33:17;;;;;;;;;10.50;10.50;;;;;10.05;59.08;100615.81;5038285;28;45530;-64
2022/04/05 00:35:42;;;;;;;;;13.50;13.50;;;;;10.04;59.23;100622.81;5038233;28;45459;-65
2022/04/05 00:38:09;;;;;;;;;11.50;10.00;;;;;10.04;59.12;100616.69;5038540;28;45387;-64
2022/04/05 00:40:35;;;;;;;;;14.00;14.00;;;;;10.05;59.49;100621.94;5038144;28;45542;-63
2022/04/05 00:43:03;;;;;;;;;13.50;12.50;;;;;10.04;59.48;100616.69;5037927;28;46734;-64
2022/04/05 00:45:29;;;;;;;;;9.75;9.75;;;;;10.06;58.93;100620.16;5038093;28;45439;-67
2022/04/05 00:47:54;;;;;;;;;14.25;14.25;;;;;10.02;59.28;100603.63;5038182;28;45439;-64
2022/04/05 00:50:21;;;;;;;;;12.00;12.00;;;;;10.08;59.57;100605.19;5038186;28;45508;-64
2022/04/05 00:52:47;;;;;;;;;12.00;11.50;;;;;10.11;59.49;100610.34;5037966;28;46291;-65
2022/04/05 00:55:15;;;;;;;;;13.25;10.75;;;;;10.07;59.41;100606.94;5037803;28;45465;-64
2022/04/05 00:57:41;;;;;;;;;10.00;10.00;;;;;10.06;59.38;100613.13;5038323;28;45568;-65
2022/04/05 01:00:08;;;;;;;;;10.00;9.50;;;;;9.98;60.53;100611.66;5037945;28;45566;-65
2022/04/05 01:02:38;;;;;;;;;12.75;12.25;;;;;10.00;60.34;100607.22;5035944;28;45579;-64
2022/04/05 01:05:05;;;;;;;;;15.00;14.00;;;;;9.97;60.57;100608.19;5036384;28;45427;-64
2022/04/05 01:07:32;;;;;;;;;11.75;11.25;;;;;10.00;60.76;100610.69;5037591;28;45452;-64
2022/04/05 01:09:59;;;;;;;;;14.50;13.00;;;;;9.98;60.49;100601.16;5037938;28;45571;-65
2022/04/05 01:12:25;;;;;;;;;14.25;13.25;;;;;10.04;61.48;100609.66;5037538;28;45421;-65
2022/04/05 01:14:51;;;;;;;;;13.50;13.50;;;;;10.04;61.11;100611.44;5037472;28;45571;-64
2022/04/05 01:17:17;;;;;;;;;13.25;10.00;;;;;10.00;61.03;100602.81;5037714;28;46246;-65
2022/04/05 01:19:43;;;;;;;;;14.25;14.25;;;;;10.02;61.43;100611.53;5037767;28;45475;-65
2022/04/05 01:22:09;;;;;;;;;12.50;12.50;;;;;10.03;61.47;100607.13;5037419;28;45445;-64
2022/04/05 01:24:35;;;;;;;;;13.25;10.50;;;;;10.03;61.57;100600.09;5037143;28;45359;-64
2022/04/05 01:27:04;;;;;;;;;13.00;13.00;;;;;10.05;61.24;100595.66;5036746;28;45527;-68
2022/04/05 01:29:29;;;;;;;;;12.75;12.75;;;;;10.07;61.48;100595.56;5037088;28;45453;-65
2022/04/05 01:31:58;;;;;;;;;15.00;13.25;;;;;10.03;61.84;100588.72;5037009;28;45454;-65
2022/04/05 01:34:26;;;;;;;;;15.75;14.00;;;;;10.07;61.87;100585.91;5037644;28;45653;-66
2022/04/05 01:36:57;;;;;;;;;11.75;10.00;;;;;10.04;61.65;100588.66;5037516;28;45602;-66
2022/04/05 01:39:24;;;;;;;;;14.50;13.00;;;;;10.00;61.40;100580.94;5036128;28;45420;-65
2022/04/05 01:41:52;;;;;;;;;12.00;12.00;;;;;10.02;62.23;100580.00;5037150;28;46470;-66
2022/04/05 01:44:17;;;;;;;;;15.00;14.00;;;;;10.01;62.48;100588.75;5037274;28;45505;-65
2022/04/05 01:46:43;;;;;;;;;15.00;15.00;;;;;10.02;62.79;100590.50;5037324;28;45513;-65
2022/04/05 01:49:10;;;;;;;;;13.50;9.75;;;;;10.05;62.70;100584.28;5037269;28;45646;-65
2022/04/05 01:51:37;;;;;;;;;14.25;13.00;;;;;10.06;62.47;100576.34;5036954;28;46321;-65
2022/04/05 01:54:05;;;;;;;;;16.75;13.25;;;;;10.01;62.70;100572.16;5036870;28;45486;-65
2022/04/05 01:56:39;;;;;;;;;14.75;13.25;;;;;10.06;62.44;100578.97;5037033;28;45451;-65
2022/04/05 01:59:05;;;;;;;;;14.50;11.25;;;;;10.09;62.61;100570.97;5037025;28;45485;-64
2022/04/05 02:01:30;;;;;;;;;16.25;15.50;;;;;10.10;62.73;100571.81;5036592;28;46187;-65
2022/04/05 02:03:55;;;;;;;;;13.75;13.75;;;;;10.11;62.41;100573.56;5036936;28;45533;-65
2022/04/05 02:06:21;;;;;;;;;19.25;16.75;;;;;10.05;63.99;100560.63;5036787;28;45356;-65
2022/04/05 02:08:46;;;;;;;;;11.75;11.75;;;;;10.05;62.73;100569.38;5037282;28;45690;-65
2022/04/05 02:11:13;;;;;;;;;13.33;11.00;;;;;10.09;62.87;100572.75;5036448;28;45548;-65
2022/04/05 02:13:38;;;;;;;;;14.25;13.00;;;;;10.06;62.87;100572.84;5036935;28;45431;-64
2022/04/05 02:16:04;;;;;;;;;13.50;12.50;;;;;10.07;62.96;100569.31;5036801;28;45681;-64
2022/04/05 02:18:30;;;;;;;;;14.25;12.00;;;;;10.07;62.92;100577.19;5036882;28;45418;-65
2022/04/05 02:20:56;;;;;;;;;14.00;13.75;;;;;10.09;62.69;100573.59;5036651;28;46224;-65
2022/04/05 02:23:22;;;;;;;;;13.00;13.00;;;;;10.10;63.41;100567.44;5036667;28;45452;-63
2022/04/05 02:25:48;;;;;;;;;15.00;15.00;;;;;10.10;62.71;100570.06;5036695;28;45397;-64
2022/04/05 02:28:13;;;;;;;;;13.00;13.00;;;;;10.14;63.21;100576.06;5036799;28;45502;-65
2022/04/05 02:30:40;;;;;;;;;13.75;12.00;;;;;10.12;62.77;100568.22;5035108;28;47301;-65
2022/04/05 02:33:06;;;;;;;;;12.50;12.50;;;;;10.14;62.47;100576.06;5036414;28;45337;-64
2022/04/05 02:35:32;;;;;;;;;13.50;13.50;;;;;10.13;63.18;100577.00;5035359;28;45512;-64
2022/04/05 02:38:01;;;;;;;;;12.50;10.75;;;;;10.13;63.14;100577.00;5036340;28;45669;-64
2022/04/05 02:40:27;;;;;;;;;12.00;12.00;;;;;10.13;63.91;100575.22;5036057;28;45538;-65
2022/04/05 02:42:53;;;;;;;;;10.75;9.75;;;;;10.09;63.60;100568.34;5036281;28;45415;-65
2022/04/05 02:45:18;;;;;;;;;12.50;11.25;;;;;10.00;63.91;100547.66;5036340;28;45524;-64
2022/04/05 02:47:44;;;;;;;;;12.50;12.50;;;;;10.08;63.03;100560.53;5036134;28;45396;-64
2022/04/05 02:50:10;;;;;;;;;11.00;9.75;;;;;10.06;63.67;100557.09;5036099;28;46189;-65
2022/04/05 02:52:35;;;;;;;;;13.50;10.25;;;;;10.05;64.06;100552.75;5036224;28;45428;-64
2022/04/05 02:55:01;;;;;;;;;12.00;12.00;;;;;10.03;63.76;100555.41;5036319;28;45466;-65
2022/04/05 02:57:26;;;;;;;;;13.00;13.00;;;;;10.07;63.69;100554.38;5036244;28;45446;-64
2022/04/05 02:59:52;;;;;;;;;14.50;13.00;;;;;10.09;63.79;100552.56;5035827;28;46290;-65
2022/04/05 03:02:17;;;;;;;;;16.50;13.75;;;;;10.09;63.81;100555.19;5036056;28;45430;-65
2022/04/05 03:04:42;;;;;;;;;13.75;13.75;;;;;10.08;64.03;100553.50;5036175;28;45482;-64
2022/04/05 03:07:08;;;;;;;;;10.25;8.75;;;;;10.08;64.14;100555.28;5035737;28;45398;-65
2022/04/05 03:09:33;;;;;;;;;13.25;11.75;;;;;10.05;64.20;100553.59;5035895;28;46052;-65
2022/04/05 03:11:58;;;;;;;;;11.25;11.25;;;;;10.06;64.67;100557.09;5035597;28;45447;-64
2022/04/05 03:14:24;;;;;;;;;10.75;10.00;;;;;10.07;65.16;100550.91;5034550;28;45466;-64
2022/04/05 03:16:49;;;;;;;;;16.00;14.50;;;;;9.96;64.46;100525.00;5035880;28;45575;-63
2022/04/05 03:19:15;;;;;;;;;13.75;12.25;;;;;10.09;64.99;100543.84;5035621;28;45465;-63
2022/04/05 03:21:40;;;;;;;;;10.50;9.75;;;;;10.09;64.77;100544.69;5035533;28;45407;-64
2022/04/05 03:24:06;;;;;;;;;13.25;12.75;;;;;10.07;65.42;100540.41;5035852;28;45451;-64
2022/04/05 03:26:31;;;;;;;;;16.50;15.00;;;;;10.05;65.06;100547.50;5035493;28;45656;-64
2022/04/05 03:28:57;;;;;;;;;11.00;11.00;;;;;10.02;65.37;100543.22;5035597;28;46359;-65
2022/04/05 03:31:22;;;;;;;;;18.75;13.25;;;;;10.00;65.30;100542.38;5035563;28;45325;-64
2022/04/05 03:33:48;;;;;;;;;14.75;13.00;;;;;10.02;65.17;100540.56;5035599;28;45402;-64
2022/04/05 03:36:13;;;;;;;;;14.00;14.00;;;;;10.05;65.05;100534.34;5035516;28;45431;-65
2022/04/05 03:38:38;;;;;;;;;14.75;14.75;;;;;10.05;65.60;100529.09;5035280;28;46590;-64
2022/04/05 03:41:05;;;;;;;;;14.25;14.25;;;;;10.03;65.67;100529.16;5035642;28;45347;-65
2022/04/05 03:43:31;;;;;;;;;14.00;11.25;;;;;10.02;65.79;100519.56;5035716;28;45348;-64
2022/04/05 03:45:56;;;;;;;;;11.75;11.75;;;;;10.00;65.86;100518.75;5035483;28;45374;-64
2022/04/05 03:48:21;;;;;;;;;10.00;9.50;;;;;10.02;65.93;100526.56;5035397;28;45372;-65
2022/04/05 03:50:47;;;;;;;;;11.50;11.00;;;;;10.01;66.11;100523.06;5034631;28;45493;-63
2022/04/05 03:53:12;;;;;;;;;11.25;11.25;;;;;10.03;66.46;100529.16;5034095;28;45529;-64
2022/04/05 03:55:37;;;;;;;;;13.75;13.75;;;;;10.05;66.00;100521.22;5035461;28;45664;-65
2022/04/05 03:58:02;;;;;;;;;10.25;10.25;;;;;10.06;66.16;100517.66;5035155;28;46582;-65
2022/04/05 04:00:29;;;;;;;;;14.50;14.50;;;;;10.06;66.19;100518.53;5035100;28;45371;-65
2022/04/05 04:02:54;;;;;;;;;11.75;11.25;;;;;10.04;67.11;100517.72;5035302;28;45436;-65
2022/04/05 04:05:20;;;;;;;;;11.50;11.50;;;;;10.02;67.05;100518.66;5035233;28;45372;-65
2022/04/05 04:07:48;;;;;;;;;14.25;14.25;;;;;10.01;67.28;100512.56;5034891;28;45553;-64
2022/04/05 04:10:14;;;;;;;;;10.00;10.00;;;;;9.95;67.18;100504.91;5035233;28;45485;-65
2022/04/05 04:12:40;;;;;;;;;11.50;11.50;;;;;10.01;67.21;100522.22;5035005;28;45506;-65
2022/04/05 04:15:06;;;;;;;;;10.75;10.75;;;;;10.00;67.63;100517.88;5034995;28;45486;-64
2022/04/05 04:17:32;;;;;;;;;13.00;13.00;;;;;10.03;67.03;100526.50;5034860;28;46324;-64
2022/04/05 04:19:57;;;;;;;;;13.75;11.25;;;;;9.98;68.55;100510.03;5033503;28;45552;-64
2022/04/05 04:22:23;;;;;;;;;13.25;11.25;;;;;9.96;67.67;100509.22;5035142;28;45472;-64
2022/04/05 04:24:49;;;;;;;;;13.25;13.25;;;;;10.00;67.58;100507.38;5034925;28;45614;-63
2022/04/05 04:27:14;;;;;;;;;10.25;10.25;;;;;10.02;67.87;100505.53;5034667;28;46070;-64
2022/04/05 04:29:40;;;;;;;;;12.75;12.75;;;;;9.98;68.26;100504.78;5034307;28;53012;-64
2022/04/05 04:32:06;;;;;;;;;13.75;13.75;;;;;10.02;68.11;100508.16;5034671;28;45475;-64
2022/04/05 04:34:31;;;;;;;;;13.25;11.00;;;;;10.02;68.10;100513.41;5033511;28;45677;-65
2022/04/05 04:36:57;;;;;;;;;12.50;12.50;;;;;10.01;67.53;100512.56;5034705;28;45496;-64
2022/04/05 04:39:23;;;;;;;;;12.00;11.00;;;;;10.02;68.14;100513.41;5034413;28;45392;-63
2022/04/05 04:41:48;;;;;;;;;13.00;13.00;;;;;10.05;67.92;100516.81;5016714;28;45418;-64
2022/04/05 04:44:14;;;;;;;;;10.25;9.75;;;;;10.05;67.48;100510.72;5035047;28;45513;-64
2022/04/05 04:46:39;;;;;;;;;15.25;14.00;;;;;10.09;67.39;100512.31;5034427;28;46428;-65
2022/04/05 04:49:05;;;;;;;;;13.75;12.00;;;;;10.10;67.33;100512.28;5034550;28;45392;-64
2022/04/05 04:51:31;;;;;;;;;12.75;9.75;;;;;10.12;67.58;100520.06;5034693;28;45459;-64
2022/04/05 04:53:56;;;;;;;;;19.00;17.00;;;;;10.14;67.72;100516.50;5034607;28;45616;-64
2022/04/05 04:56:22;;;;;;;;;12.00;12.00;;;;;10.14;67.56;100510.38;5034323;28;45908;-64
2022/04/05 04:58:47;;;;;;;;;13.75;13.75;;;;;10.16;67.74;100509.41;5034456;28;45393;-65
2022/04/05 05:01:13;;;;;;;;;14.00;14.00;;;;;10.12;67.69;100507.78;5034474;28;45466;-65
2022/04/05 05:03:38;;;;;;;;;10.50;10.50;;;;;10.13;67.51;100506.91;5037901;28;45414;-65
2022/04/05 05:06:04;;;;;;;;;15.50;14.25;;;;;10.17;67.44;100511.13;5037226;28;45640;-65
2022/04/05 05:08:30;;;;;;;;;12.00;12.00;;;;;10.20;67.94;100511.94;5037801;28;45530;-66
2022/04/05 05:10:56;;;;;;;;;13.75;11.25;;;;;10.20;67.98;100511.94;5037734;28;45576;-65
2022/04/05 05:13:21;;;;;;;;;16.25;15.25;;;;;10.13;68.52;100500.78;5035991;28;45604;-65
2022/04/05 05:15:47;;;;;;;;;17.25;17.25;;;;;10.16;67.88;100505.94;5037571;28;45544;-64
2022/04/05 05:18:13;;;;;;;;;13.25;13.25;;;;;10.14;68.32;100503.34;5037599;28;45403;-63
2022/04/05 05:20:38;;;;;;;;;14.75;13.00;;;;;10.15;68.12;100498.94;5036421;28;45563;-64
2022/04/05 05:23:04;;;;;;;;;12.00;12.00;;;;;10.16;68.36;100509.41;5037768;28;45475;-63
2022/04/05 05:25:30;;;;;;;;;9.50;9.50;;;;;10.15;68.96;100507.72;5037544;28;46253;-63
2022/04/05 05:27:55;;;;;;;;;14.25;14.25;;;;;10.12;68.51;100504.31;5037348;28;45523;-64
2022/04/05 05:30:22;;;;;;;;;16.25;13.75;;;;;10.04;69.40;100501.09;5036199;28;45380;-63
2022/04/05 05:32:52;;;;;;;;;15.25;15.25;;;;;10.09;68.77;100513.16;5037324;28;45558;-65
2022/04/05 05:35:19;;;;;;;;;16.50;14.75;;;;;10.10;69.06;100514.91;5037234;28;46044;-64
2022/04/05 05:37:45;;;;;;;;;14.25;14.25;;;;;10.07;69.70;100504.47;5036058;28;45404;-64
2022/04/05 05:40:11;;;;;;;;;14.00;12.00;;;;;10.07;69.24;100514.97;5037473;28;45335;-64
2022/04/05 05:42:57;;;;;;;;;18.25;16.00;;;;;10.08;69.22;100514.09;5037341;28;45505;-64
2022/04/05 05:45:24;;;;;;;;;16.50;15.25;;;;;10.11;68.88;100513.13;5037098;28;46033;-64
2022/04/05 05:47:49;;;;;;;;;16.75;16.50;;;;;10.09;70.00;100497.38;5037302;28;45542;-64
2022/04/05 05:50:15;;;;;;;;;14.00;14.00;;;;;10.07;69.27;100504.47;5037232;28;45475;-65
2022/04/05 05:52:42;;;;;;;;;12.50;12.50;;;;;10.06;69.56;100505.38;5037371;28;45438;-65
2022/04/05 05:55:08;;;;;;;;;15.75;15.75;;;;;10.03;69.70;100497.63;5036999;28;45486;-65
2022/04/05 05:57:34;;;;;;;;;13.75;13.75;;;;;10.07;70.12;100509.72;5037069;28;45430;-64
2022/04/05 06:00:01;;;;;;;;;11.50;10.00;;;;;10.07;70.17;100516.75;5037001;28;45496;-64
2022/04/05 06:02:26;;;;;;;;;12.50;12.25;;;;;10.05;69.88;100510.72;5037091;28;45340;-65
2022/04/05 06:04:51;;;;;;;;;15.75;15.00;;;;;10.08;69.81;100518.47;5036791;28;46393;-65
2022/04/05 06:07:17;;;;;;;;;13.00;13.00;;;;;10.09;70.35;100520.19;5035234;28;45467;-64
2022/04/05 06:09:42;;;;;;;;;11.75;11.75;;;;;10.08;69.36;100516.72;5036926;28;45494;-65
2022/04/05 06:12:08;;;;;;;;;13.75;13.00;;;;;10.08;69.70;100521.97;5036738;28;47805;-64
2022/04/05 06:14:33;;;;;;;;;14.00;14.00;;;;;10.11;69.55;100527.09;5035939;28;45344;-64
2022/04/05 06:16:58;;;;;;;;;14.50;13.00;;;;;10.12;69.60;100523.56;5036771;28;45523;-64
2022/04/05 06:19:24;;;;;;;;;11.25;11.25;;;;;10.15;70.08;100533.09;5036755;28;45494;-66
2022/04/05 06:21:49;;;;;;;;;13.00;10.50;;;;;10.17;69.49;100531.28;5036513;28;45334;-66
2022/04/05 06:24:14;;;;;;;;;12.25;12.25;;;;;10.17;69.79;100540.03;5036503;28;45930;-63
2022/04/05 06:26:39;;;;;;;;;11.50;9.75;;;;;10.19;69.73;100542.63;5036534;28;45400;-64
2022/04/05 06:29:05;;;;;;;;;13.50;13.25;;;;;10.16;70.17;100540.94;5036644;28;45442;-64
2022/04/05 06:31:30;;;;;;;;;10.25;10.25;;;;;10.17;70.64;100541.81;5036706;28;45514;-66
2022/04/05 06:33:58;;;;;;;;;16.25;14.25;;;;;10.15;69.81;100541.00;5034978;28;45439;-66
2022/04/05 06:36:24;;;;;;;;;14.50;13.50;;;;;10.16;69.94;100543.59;5036550;28;45382;-65
2022/04/05 06:38:49;;;;;;;;;14.00;13.00;;;;;10.20;70.29;100552.19;5036512;28;45390;-65
2022/04/05 06:41:14;;;;;;;;;14.00;14.00;;;;;10.22;70.96;100552.16;5036489;28;45508;-64
2022/04/05 06:43:40;;;;;;;;;7.00;7.00;;;;;10.20;70.67;100552.19;5036426;28;46124;-64
2022/04/05 06:46:05;;;;;;;;;16.25;13.75;;;;;10.23;70.20;100559.13;5036397;28;45384;-64
2022/04/05 06:48:31;;;;;;;;;11.25;11.25;;;;;10.26;70.11;100564.28;5036456;28;45471;-65
2022/04/05 06:50:57;;;;;;;;;9.75;9.00;;;;;10.28;69.74;100560.72;5034923;28;45637;-65
2022/04/05 06:53:22;;;;;;;;;15.25;13.00;;;;;10.30;69.99;100556.28;5036005;28;46290;-64
2022/04/05 06:55:48;;;;;;;;;13.25;13.00;;;;;10.33;70.10;100550.91;5035974;28;45553;-64
2022/04/05 06:58:13;;;;;;;;;12.25;12.25;;;;;10.34;70.23;100560.53;5036090;28;45413;-65
2022/04/05 07:00:38;;;;;;;;;10.25;10.25;;;;;10.30;70.31;100545.75;5035981;28;45513;-64
2022/04/05 07:03:05;;;;;;;;;13.00;13.00;;;;;10.32;70.42;100545.72;5035718;28;46537;-64
2022/04/05 07:05:30;;;;;;;;;12.50;11.25;;;;;10.36;70.98;100542.06;5035904;28;45355;-63
2022/04/05 07:07:56;;;;;;;;;11.75;11.25;;;;;10.32;70.48;100532.56;5035562;28;45828;-64
2022/04/05 07:10:22;;;;;;;;;11.50;10.75;;;;;10.38;70.46;100538.47;5035902;28;45575;-65
2022/04/05 07:12:48;;;;;;;;;12.25;12.25;;;;;10.40;70.60;100543.66;5035693;28;45536;-65
2022/04/05 07:15:13;;;;;;;;;9.00;9.00;;;;;10.41;70.61;100539.25;5035722;28;45450;-66
2022/04/05 07:17:40;;;;;;;;;9.00;9.00;;;;;10.42;70.75;100544.44;5035736;28;45584;-64
2022/04/05 07:20:08;;;;;;;;;11.00;10.50;;;;;10.43;70.31;100535.66;5035671;28;45353;-64
2022/04/05 07:22:34;;;;;;;;;10.00;9.00;;;;;10.45;70.13;100541.75;5035285;28;45570;-64
2022/04/05 07:25:00;;;;;;;;;14.00;13.50;;;;;10.48;70.49;100535.53;5035075;28;45370;-64
2022/04/05 07:27:26;;;;;;;;;10.50;10.50;;;;;10.46;70.57;100526.81;5035155;28;45463;-63
2022/04/05 07:29:51;;;;;;;;;12.25;12.25;;;;;10.51;70.73;100536.25;5035595;28;45598;-64
2022/04/05 07:32:16;;;;;;;;;9.50;9.50;;;;;10.51;70.74;100530.16;5035091;28;54507;-64
2022/04/05 07:34:42;;;;;;;;;8.75;8.25;;;;;10.48;70.25;100533.75;5035271;28;45387;-64
2022/04/05 07:37:09;;;;;;;;;8.50;8.50;;;;;10.54;70.46;100541.41;5035453;28;45473;-63
2022/04/05 07:39:36;;;;;;;;;11.25;11.25;;;;;10.49;70.86;100524.06;5035517;28;45284;-65
2022/04/05 07:42:02;;;;;;;;;11.00;11.00;;;;;10.59;70.58;100535.97;5035146;28;45418;-64
2022/04/05 07:44:27;;;;;;;;;9.75;9.75;;;;;10.59;71.16;100541.25;5034993;28;45422;-64
2022/04/05 07:46:52;;;;;;;;;10.25;9.25;;;;;10.60;71.10;100535.91;5035335;28;45470;-64
2022/04/05 07:49:18;;;;;;;;;12.00;12.00;;;;;10.64;71.15;100543.69;5035298;28;45391;-65
2022/04/05 07:51:43;;;;;;;;;15.25;12.25;;;;;10.64;70.82;100546.31;5035140;28;45981;-64
2022/04/05 07:54:09;;;;;;;;;11.00;11.00;;;;;10.60;71.47;100538.53;5035257;28;45452;-65
2022/04/05 07:56:34;;;;;;;;;14.50;12.75;;;;;10.62;71.54;100543.75;5035321;28;45480;-64
2022/04/05 07:59:01;;;;;;;;;11.25;11.25;;;;;10.62;71.09;100538.50;5035392;28;45564;-64
2022/04/05 08:01:29;;;;;;;;;15.25;13.75;;;;;10.63;71.59;100537.56;5033728;28;46058;-64
2022/04/05 08:03:57;;;;;;;;;14.00;14.00;;;;;10.58;71.91;100535.09;5034987;28;45401;-64
2022/04/05 08:06:24;;;;;;;;;11.00;11.00;;;;;10.58;71.74;100532.47;5034840;28;45383;-65
2022/04/05 08:08:49;;;;;;;;;14.25;14.25;;;;;10.66;71.78;100542.72;5035097;28;45551;-63
2022/04/05 08:11:15;;;;;;;;;13.75;13.00;;;;;10.68;71.36;100533.00;5034814;28;46152;-64
2022/04/05 08:13:40;;;;;;;;;14.25;14.25;;;;;10.72;72.27;100539.88;5035005;28;45502;-63
2022/04/05 08:16:06;;;;;;;;;11.50;11.50;;;;;10.73;71.90;100540.72;5035087;28;45446;-66
2022/04/05 08:18:31;;;;;;;;;9.75;9.75;;;;;10.73;70.88;100538.94;5033751;28;45438;-63
2022/04/05 08:20:56;;;;;;;;;13.25;11.00;;;;;10.78;71.95;100554.56;5033325;28;47669;-64
2022/04/05 08:23:22;;;;;;;;;14.00;14.00;;;;;10.78;71.15;100552.78;5034744;28;45378;-63
2022/04/05 08:25:47;;;;;;;;;17.50;15.00;;;;;10.78;71.92;100551.94;5034912;28;45428;-64
2022/04/05 08:28:13;;;;;;;;;16.50;15.25;;;;;10.77;71.60;100552.84;5034946;28;45617;-64
2022/04/05 08:30:38;;;;;;;;;11.75;11.75;;;;;10.83;71.48;100557.91;5034366;28;46103;-63
2022/04/05 08:33:03;;;;;;;;;15.00;14.50;;;;;10.84;71.90;100562.22;5034434;28;45401;-63
2022/04/05 08:35:29;;;;;;;;;14.00;14.00;;;;;10.83;71.09;100557.91;5034658;28;45567;-63
2022/04/05 08:37:55;;;;;;;;;15.75;14.00;;;;;10.86;71.12;100562.19;5036662;28;45561;-64
2022/04/05 08:40:23;;;;;;;;;13.00;13.00;;;;;10.86;72.10;100562.19;5036571;28;45731;-65
2022/04/05 08:42:51;;;;;;;;;13.00;13.00;;;;;10.87;72.08;100562.13;5037893;28;45422;-64
2022/04/05 08:45:19;;;;;;;;;17.00;16.50;;;;;10.88;71.95;100560.34;5037637;28;45499;-64
2022/04/05 08:47:52;;;;;;;;;17.25;15.50;;;;;10.89;71.56;100549.75;5038055;28;45456;-64
2022/04/05 08:50:24;;;;;;;;;11.75;10.50;;;;;10.90;71.27;100548.00;5037466;28;46179;-65
2022/04/05 08:52:50;;;;;;;;;14.25;13.50;;;;;10.93;72.32;100550.50;5037621;28;45470;-64
2022/04/05 08:55:17;;;;;;;;;14.25;14.25;;;;;10.93;71.63;100558.38;5037792;28;45516;-65
2022/04/05 08:57:43;;;;;;;;;18.00;14.25;;;;;10.92;71.47;100556.69;5037770;28;45355;-64
2022/04/05 09:00:10;;;;;;;;;11.25;11.25;;;;;10.88;72.52;100552.44;5037534;28;46312;-64
2022/04/05 09:02:36;;;;;;;;;14.00;14.00;;;;;10.91;71.82;100549.69;5037438;28;45466;-64
2022/04/05 09:05:03;;;;;;;;;15.25;15.25;;;;;10.90;72.04;100543.56;5037682;28;45373;-64
2022/04/05 09:07:33;;;;;;;;;14.25;14.25;;;;;10.94;72.06;100539.06;5037389;28;45447;-64
2022/04/05 09:10:09;;;;;;;;;12.33;12.33;;;;;11.00;72.02;100544.09;5037143;28;46205;-64
2022/04/05 09:12:41;;;;;;;;;14.00;11.00;;;;;10.98;71.61;100538.88;5037200;28;45480;-64
2022/04/05 09:15:16;;;;;;;;;14.75;14.75;;;;;11.03;72.02;100539.56;5037513;28;45560;-65
2022/04/05 09:17:43;;;;;;;;;15.75;14.50;;;;;11.07;72.48;100548.22;5037358;28;45532;-65
2022/04/05 09:20:10;;;;;;;;;15.25;15.00;;;;;11.00;72.14;100534.44;5037159;28;45442;-63
2022/04/05 09:22:35;;;;;;;;;13.75;13.75;;;;;11.06;72.18;100547.34;5037240;28;45448;-64
2022/04/05 09:25:20;;;;;;;;;14.25;14.25;;;;;11.00;72.92;100542.31;5037241;28;45398;-65
2022/04/05 09:27:46;;;;;;;;;14.25;13.25;;;;;11.03;73.56;100543.97;5037295;28;45378;-64
2022/04/05 09:30:18;;;;;;;;;15.50;15.50;;;;;11.00;73.21;100541.47;5037039;28;46346;-63
2022/04/05 09:32:48;;;;;;;;;12.75;12.75;;;;;11.00;73.40;100539.69;5036969;28;45384;-62
2022/04/05 09:35:16;;;;;;;;;14.00;12.33;;;;;11.02;73.56;100543.13;5037120;28;45519;-64
2022/04/05 09:37:44;;;;;;;;;12.25;11.75;;;;;11.11;71.97;100552.44;5037000;28;45536;-63
2022/04/05 09:40:37;;;;;;;;;12.00;12.00;;;;;11.14;73.96;100556.72;5036785;28;47106;-63
2022/04/05 09:43:15;;;;;;;;;17.50;16.50;;;;;11.17;73.43;100564.50;5037070;28;45549;-64
2022/04/05 09:45:55;;;;;;;;;10.25;10.25;;;;;11.14;74.45;100557.59;5037146;28;45416;-64
2022/04/05 09:48:40;;;;;;;;;16.00;15.00;;;;;11.14;73.72;100551.47;5036175;28;45482;-64
2022/04/05 09:51:06;;;;;;;;;15.25;14.00;;;;;11.23;73.20;100567.78;5036176;28;46246;-63
2022/04/05 09:53:54;;;;;;;;;19.00;16.50;;;;;11.24;73.51;100560.72;5036821;28;45596;-64
2022/04/05 09:56:25;;;;;;;;;18.00;13.75;;;;;11.26;73.54;100553.63;5037120;28;45424;-65
2022/04/05 09:58:56;;;;;;;;;16.25;16.00;;;;;11.28;73.52;100557.94;5036966;28;45439;-64
2022/04/05 10:01:24;;;;;;;;;9.33;9.00;;;;;11.32;73.68;100553.38;5036453;28;46448;-63
2022/04/05 10:04:04;;;;;;;;;16.25;12.75;;;;;11.33;73.96;100556.88;5036721;28;45456;-64
2022/04/05 10:06:31;;;;;;;;;14.25;14.25;;;;;11.34;73.01;100551.56;5035184;28;45597;-64
2022/04/05 10:09:01;;;;;;;;;14.67;11.00;;;;;11.33;73.50;100552.47;5036900;28;45532;-65
2022/04/05 10:11:28;;;;;;;;;17.50;14.50;;;;;11.38;73.45;100554.91;5036272;28;45529;-64
2022/04/05 10:13:54;;;;;;;;;18.25;14.75;;;;;11.39;73.71;100554.88;5036417;28;45462;-65
2022/04/05 10:16:23;;;;;;;;;12.00;11.67;;;;;11.42;73.76;100551.25;5036770;28;45458;-64
2022/04/05 10:18:50;;;;;;;;;15.50;15.00;;;;;11.46;72.80;100550.19;5035264;28;45417;-64
2022/04/05 10:21:19;;;;;;;;;14.33;14.33;;;;;11.48;73.71;100551.88;5036406;28;46325;-64
2022/04/05 10:23:47;;;;;;;;;16.33;13.33;;;;;11.49;74.27;100547.44;5036405;28;45394;-64
2022/04/05 10:26:16;;;;;;;;;14.00;13.00;;;;;11.49;73.22;100556.19;5036631;28;45463;-65
2022/04/05 10:28:44;;;;;;;;;11.00;10.00;;;;;11.51;73.71;100561.41;5036271;28;45689;-64
2022/04/05 10:31:45;;;;;;;;;11.33;11.33;;;;;11.55;72.23;100549.81;5035978;28;46534;-64
2022/04/05 10:34:34;;;;;;;;;11.67;11.67;;;;;11.60;73.21;100553.13;5036324;28;45539;-64
2022/04/05 10:37:28;;;;;;;;;15.67;15.00;;;;;11.60;72.99;100554.91;5036560;28;45426;-64
2022/04/05 10:39:56;;;;;;;;;13.00;11.67;;;;;11.61;72.25;100549.59;5036289;28;45367;-65
2022/04/05 10:42:25;;;;;;;;;11.67;11.67;;;;;11.62;73.48;100553.09;5035883;28;45443;-64
2022/04/05 10:45:21;;;;;;;;;12.00;12.00;;;;;11.62;73.09;100551.31;5036045;28;45490;-65
2022/04/05 10:48:11;;;;;;;;;13.00;11.00;;;;;11.60;73.24;100550.50;5036195;28;45450;-65
2022/04/05 10:50:36;;;;;;;;;15.33;14.33;;;;;11.59;73.53;100553.22;5035999;28;45407;-65
2022/04/05 10:53:16;;;;;;;;;9.67;9.33;;;;;11.60;73.22;100558.41;5035917;28;45708;-64
2022/04/05 10:56:03;;;;;;;;;17.33;15.33;;;;;11.61;73.54;100554.88;5036004;28;45442;-65
2022/04/05 10:58:30;;;;;;;;;11.00;11.00;;;;;11.63;72.71;100547.78;5035817;28;45388;-64
2022/04/05 11:01:14;;;;;;;;;15.67;15.67;;;;;11.65;72.84;100548.53;5035648;28;45601;-65
2022/04/05 11:03:40;;;;;;;;;12.00;11.67;;;;;11.65;73.97;100535.38;5035479;28;45437;-64
2022/04/05 11:06:06;;;;;;;;;12.00;10.67;;;;;11.63;72.72;100526.69;5035364;28;45440;-64
2022/04/05 11:08:33;;;;;;;;;13.00;11.67;;;;;11.69;73.56;100534.34;5035889;28;45427;-65
2022/04/05 11:11:04;;;;;;;;;8.00;7.67;;;;;11.68;73.49;100537.88;5035527;28;45459;-63
2022/04/05 11:13:45;;;;;;;;;11.67;10.67;;;;;11.68;73.32;100543.13;5035024;28;46270;-65